Time;durP1;ratioP1;P1;durP2;ratioP2;P2;SDS_P1;SDS_P2;PMS_P1;PMS_P2;Temp;Humidity;BMP_temperature;BMP_pressure;BME280_temperature;BME280_humidity;BME280_pressure;Samples;Min_cycle;Max_cycle;Signal;HPM_P1;HPM_P2
2022/06/08 00:01:52;;;;;;;39.22;29.92;;;;;;;14.39;97.79;100896.16;4980337;28;20069;-87
2022/06/08 00:04:22;;;;;;;40.53;31.15;;;;;;;14.35;97.46;100892.81;4992837;28;20069;-88
2022/06/08 00:06:48;;;;;;;37.47;28.63;;;;;;;14.30;97.54;100889.59;4991565;28;20038;-88
2022/06/08 00:09:13;;;;;;;40.47;30.45;;;;;;;14.24;97.59;100889.13;4992567;28;20031;-88
2022/06/08 00:11:39;;;;;;;42.38;30.70;;;;;;;14.16;97.47;100890.47;4993585;28;20021;-88
2022/06/08 00:14:04;;;;;;;42.38;31.17;;;;;;;14.19;98.10;100895.63;4974773;28;20042;-89
2022/06/08 00:16:30;;;;;;;43.83;32.05;;;;;;;14.21;98.87;100887.47;4988674;28;20034;-89
2022/06/08 00:18:55;;;;;;;44.88;32.38;;;;;;;14.26;99.23;100880.03;4971910;28;20030;-87
2022/06/08 00:21:20;;;;;;;43.03;31.73;;;;;;;14.29;98.11;100884.31;4977075;28;20515;-88
2022/06/08 00:23:46;;;;;;;43.90;31.42;;;;;;;14.33;98.15;100878.66;4991309;28;20057;-87
2022/06/08 00:26:11;;;;;;;42.58;31.75;;;;;;;14.31;97.83;100872.56;4972398;28;20053;-87
2022/06/08 00:28:37;;;;;;;44.67;32.20;;;;;;;14.31;97.63;100871.69;4987896;28;20022;-88
2022/06/08 00:31:02;;;;;;;43.28;31.65;;;;;;;14.23;97.94;100877.56;4992106;28;20376;-87
2022/06/08 00:33:28;;;;;;;44.28;30.92;;;;;;;14.12;97.92;100866.69;4989129;28;20030;-88
2022/06/08 00:35:53;;;;;;;47.17;32.92;;;;;;;14.08;98.78;100863.34;4992116;28;20045;-88
2022/06/08 00:38:19;;;;;;;42.60;31.88;;;;;;;14.06;98.53;100869.78;4990203;28;20026;-88
2022/06/08 00:40:47;;;;;;;44.63;31.65;;;;;;;14.00;98.53;100864.78;4991267;28;20026;-87
2022/06/08 00:43:13;;;;;;;41.67;30.80;;;;;;;13.95;99.01;100868.63;4973943;28;20073;-88
2022/06/08 00:45:38;;;;;;;42.22;30.85;;;;;;;13.90;98.72;100865.41;4986057;28;20022;-88
2022/06/08 00:48:05;;;;;;;39.63;29.45;;;;;;;13.87;99.26;100864.72;4991520;28;20038;-88
2022/06/08 00:51:00;;;;;;;39.45;29.35;;;;;;;13.82;99.00;100859.69;4993933;28;20026;-88
2022/06/08 00:53:37;;;;;;;41.10;30.13;;;;;;;13.79;99.77;100854.50;4970713;28;20046;-87
2022/06/08 00:56:05;;;;;;;43.22;30.77;;;;;;;13.74;99.17;100853.09;4989422;28;20074;-87
2022/06/08 00:58:33;;;;;;;42.53;30.15;;;;;;;13.65;99.35;100857.22;4991581;28;20033;-87
2022/06/08 01:00:59;;;;;;;39.50;29.52;;;;;;;13.61;99.77;100845.00;4977844;28;20069;-87
2022/06/08 01:03:26;;;;;;;39.60;30.23;;;;;;;13.60;99.44;100845.97;4991488;28;20050;-87
2022/06/08 01:06:15;;;;;;;41.20;30.23;;;;;;;13.59;99.70;100852.28;4991148;28;20173;-87
2022/06/08 01:08:45;;;;;;;41.60;29.55;;;;;;;13.53;100.00;100839.28;4989403;28;20113;-87
2022/06/08 01:11:17;;;;;;;42.45;29.98;;;;;;;13.50;100.00;100843.00;4993068;28;20112;-87
2022/06/08 01:13:44;;;;;;;40.47;30.27;;;;;;;13.48;99.81;100833.38;4990113;28;20038;-88
2022/06/08 01:16:10;;;;;;;39.13;28.08;;;;;;;13.44;100.00;100828.22;4990180;28;20074;-88
2022/06/08 01:18:37;;;;;;;39.75;28.20;;;;;;;13.44;100.00;100824.69;4990854;28;20096;-87
2022/06/08 01:21:20;;;;;;;39.22;28.20;;;;;;;13.41;100.00;100828.38;4975196;28;20034;-87
2022/06/08 01:23:48;;;;;;;34.30;25.90;;;;;;;13.39;100.00;100826.78;4984073;28;20400;-88
2022/06/08 01:26:17;;;;;;;35.67;26.38;;;;;;;13.36;100.00;100821.63;4991355;28;20034;-88
2022/06/08 01:28:54;;;;;;;37.35;25.80;;;;;;;13.33;100.00;100817.31;4991243;28;20022;-87
2022/06/08 01:31:43;;;;;;;34.90;24.85;;;;;;;13.33;100.00;100819.13;4981658;28;20097;-86
2022/06/08 01:34:28;;;;;;;32.83;24.02;;;;;;;13.30;100.00;100809.50;4987056;28;20030;-88
2022/06/08 01:37:12;;;;;;;30.45;23.80;;;;;;;13.29;100.00;100810.44;4981260;28;20057;-87
2022/06/08 01:39:46;;;;;;;32.45;23.48;;;;;;;13.26;100.00;100799.13;4988707;28;20487;-87
2022/06/08 01:42:35;;;;;;;33.35;24.35;;;;;;;13.24;100.00;100801.00;4986903;28;20037;-88
2022/06/08 01:45:42;;;;;;;31.38;22.98;;;;;;;13.22;100.00;100798.41;4970255;28;20515;-88
2022/06/08 01:48:34;;;;;;;33.75;23.98;;;;;;;13.19;100.00;100799.44;4984918;28;20057;-88
2022/06/08 01:51:24;;;;;;;32.05;23.75;;;;;;;13.15;100.00;100779.22;4989703;28;20010;-88
2022/06/08 01:54:13;;;;;;;34.83;23.88;;;;;;;13.17;100.00;100779.13;4989038;28;20026;-87
2022/06/08 01:56:50;;;;;;;35.90;23.85;;;;;;;13.14;100.00;100768.63;4993882;28;20499;-88
2022/06/08 01:59:25;;;;;;;31.20;23.13;;;;;;;13.13;100.00;100772.28;4990821;28;20022;-87
2022/06/08 02:02:18;;;;;;;30.35;23.05;;;;;;;13.10;100.00;100772.44;4992022;28;20043;-87
2022/06/08 02:05:03;;;;;;;28.98;21.95;;;;;;;13.06;100.00;100765.59;4978363;28;20073;-87
2022/06/08 02:07:34;;;;;;;29.05;21.88;;;;;;;13.03;100.00;100755.94;4991342;28;20301;-87
2022/06/08 02:10:39;;;;;;;28.15;21.45;;;;;;;13.01;100.00;100752.50;4991988;28;20026;-87
2022/06/08 02:13:26;;;;;;;25.83;19.35;;;;;;;13.01;100.00;100754.31;4990520;28;20077;-89
2022/06/08 02:15:57;;;;;;;29.40;20.42;;;;;;;12.99;100.00;100745.53;4991102;28;20051;-87
2022/06/08 02:18:29;;;;;;;24.63;19.25;;;;;;;12.95;100.00;100742.19;4993614;28;20427;-86
2022/06/08 02:21:16;;;;;;;25.35;19.75;;;;;;;12.87;100.00;100726.63;4994128;28;20026;-86
2022/06/08 02:23:55;;;;;;;27.98;20.10;;;;;;;12.86;100.00;100727.59;4991516;28;20029;-87
2022/06/08 02:26:34;;;;;;;25.67;18.85;;;;;;;12.87;100.00;100721.28;4990089;28;20034;-87
2022/06/08 02:29:08;;;;;;;25.67;18.88;;;;;;;12.83;100.00;100717.13;4989203;28;20065;-87
2022/06/08 02:32:03;;;;;;;;;;;;;;;12.86;100.00;100718.72;4994556;28;20034;-88
2022/06/08 02:34:37;;;;;;;22.50;17.63;;;;;;;12.81;100.00;100707.47;4961393;28;19925;-87
2022/06/08 02:37:23;;;;;;;22.67;17.48;;;;;;;12.77;100.00;100705.94;4969766;28;20422;-87
2022/06/08 02:39:54;;;;;;;24.13;17.17;;;;;;;12.74;100.00;100696.31;4988768;28;20034;-87
2022/06/08 02:42:25;;;;;;;23.73;17.23;;;;;;;12.74;100.00;100706.13;4995826;28;20030;-87
2022/06/08 02:44:55;;;;;;;25.73;17.10;;;;;;;12.66;100.00;100694.09;4994647;28;20046;-88
2022/06/08 02:47:30;;;;;;;25.20;17.70;;;;;;;12.69;100.00;100707.28;4991219;28;20158;-87
2022/06/08 02:49:58;;;;;;;24.75;18.27;;;;;;;12.65;100.00;100694.22;4996524;28;20244;-88
2022/06/08 02:52:26;;;;;;;25.60;17.17;;;;;;;12.65;100.00;100707.56;5002724;28;20064;-88
2022/06/08 02:54:52;;;;;;;22.27;16.98;;;;;;;12.65;100.00;100708.41;4997279;28;20054;-87
2022/06/08 02:57:38;;;;;;;24.25;16.92;;;;;;;12.65;100.00;100708.41;4996279;28;20067;-87
2022/06/08 03:00:12;;;;;;;22.30;16.50;;;;;;;12.64;100.00;100708.53;4989879;28;20030;-87
2022/06/08 03:02:52;;;;;;;22.45;15.93;;;;;;;12.63;100.00;100704.16;4977670;28;20037;-87
2022/06/08 03:05:17;;;;;;;20.65;15.63;;;;;;;12.63;100.00;100696.13;4995351;28;20117;-88
2022/06/08 03:07:54;;;;;;;19.45;15.63;;;;;;;12.61;100.00;100698.88;4990339;28;20061;-88
2022/06/08 03:10:21;;;;;;;18.77;14.32;;;;;;;12.59;100.00;100691.94;4991004;28;20030;-88
2022/06/08 03:12:56;;;;;;;18.05;14.48;;;;;;;12.61;100.00;100690.88;4991425;28;20022;-87
2022/06/08 03:15:24;;;;;;;17.02;13.73;;;;;;;12.56;100.00;100676.94;4984915;28;20078;-87
2022/06/08 03:17:50;;;;;;;17.13;12.75;;;;;;;12.60;100.00;100685.63;4978905;28;20403;-86
2022/06/08 03:20:17;;;;;;;17.05;13.65;;;;;;;12.60;100.00;100685.63;4999295;28;20427;-87
2022/06/08 03:22:43;;;;;;;18.20;13.88;;;;;;;12.60;100.00;100680.28;4993423;28;20488;-87
2022/06/08 03:25:09;;;;;;;14.65;12.00;;;;;;;12.60;100.00;100682.97;4979422;28;20038;-88
2022/06/08 03:27:37;;;;;;;17.20;13.38;;;;;;;12.59;100.00;100686.59;4995203;28;20030;-88
2022/06/08 03:30:04;;;;;;;17.20;13.00;;;;;;;12.60;100.00;100683.81;4993258;28;20778;-89
2022/06/08 03:32:29;;;;;;;14.63;11.93;;;;;;;12.60;100.00;100678.47;4991025;28;20026;-88
2022/06/08 03:34:55;;;;;;;14.35;12.10;;;;;;;12.57;100.00;100667.13;4991607;28;20118;-87
2022/06/08 03:37:20;;;;;;;15.65;12.07;;;;;;;12.67;100.00;100674.47;4993959;28;20034;-87
2022/06/08 03:39:45;;;;;;;14.98;11.82;;;;;;;12.67;100.00;100670.97;4992135;28;20046;-87
2022/06/08 03:42:11;;;;;;;18.60;13.05;;;;;;;12.70;100.00;100671.59;4966766;28;20026;-87
2022/06/08 03:44:36;;;;;;;14.85;11.85;;;;;;;12.71;100.00;100669.81;4984891;28;20094;-88
2022/06/08 03:47:09;;;;;;;13.00;10.73;;;;;;;12.73;100.00;100669.72;4984525;28;20031;-87
2022/06/08 03:49:34;;;;;;;15.65;12.02;;;;;;;12.78;100.00;100680.97;4985231;28;20026;-87
2022/06/08 03:52:03;;;;;;;14.38;11.15;;;;;;;12.80;100.00;100679.06;4986552;28;20037;-87
2022/06/08 03:54:36;;;;;;;13.63;10.77;;;;;;;12.84;100.00;100688.59;4982263;28;20027;-88
2022/06/08 03:57:03;;;;;;;13.75;10.65;;;;;;;12.84;100.00;100681.44;4983496;28;20038;-87
2022/06/08 03:59:30;;;;;;;13.88;11.48;;;;;;;12.92;100.00;100689.84;4982377;28;20058;-87
2022/06/08 04:01:56;;;;;;;12.75;10.77;;;;;;;12.92;100.00;100678.28;4983893;28;20317;-88
2022/06/08 04:04:21;;;;;;;13.75;11.73;;;;;;;12.97;100.00;100681.53;4981617;28;20090;-88
2022/06/08 04:06:47;;;;;;;14.48;11.38;;;;;;;12.99;100.00;100684.09;4994780;28;20045;-88
2022/06/08 04:09:12;;;;;;;14.15;11.23;;;;;;;13.02;100.00;100667.88;4996034;28;20031;-87
2022/06/08 04:11:37;;;;;;;14.32;11.35;;;;;;;13.07;100.00;100677.28;4992635;28;20065;-87
2022/06/08 04:14:03;;;;;;;14.60;11.10;;;;;;;13.15;100.00;100672.31;4994022;28;20507;-88
2022/06/08 04:16:29;;;;;;;15.93;10.95;;;;;;;13.23;100.00;100668.34;4990790;28;20137;-88
2022/06/08 04:18:54;;;;;;;16.73;11.25;;;;;;;13.33;100.00;100664.09;4991788;28;20369;-88
2022/06/08 04:21:20;;;;;;;12.40;10.65;;;;;;;13.40;100.00;100666.28;4993555;28;20424;-88
2022/06/08 04:23:47;;;;;;;13.07;10.98;;;;;;;13.51;100.00;100659.38;4990070;28;20027;-88
2022/06/08 04:26:14;;;;;;;11.45;9.70;;;;;;;13.60;100.00;100666.78;4974211;28;20030;-87
2022/06/08 04:28:40;;;;;;;11.18;9.98;;;;;;;13.68;100.00;100665.31;4993710;28;20022;-89
2022/06/08 04:31:06;;;;;;;13.73;9.98;;;;;;;13.76;100.00;100669.31;4993445;28;20479;-88
2022/06/08 04:33:32;;;;;;;10.95;9.80;;;;;;;13.76;100.00;100662.13;4992024;28;20484;-89
2022/06/08 04:35:58;;;;;;;12.05;9.30;;;;;;;13.82;100.00;100669.75;4994374;28;20039;-89
2022/06/08 04:38:24;;;;;;;10.30;9.07;;;;;;;13.86;100.00;100665.03;4995869;28;20030;-87
2022/06/08 04:40:49;;;;;;;11.70;9.23;;;;;;;13.85;100.00;100655.31;4994753;28;20427;-88
2022/06/08 04:43:15;;;;;;;11.00;9.60;;;;;;;13.92;100.00;100665.50;4993581;28;20042;-88
2022/06/08 04:45:42;;;;;;;10.15;8.77;;;;;;;13.90;100.00;100659.38;4990778;28;20035;-88
2022/06/08 04:48:08;;;;;;;11.75;9.23;;;;;;;13.95;100.00;100653.72;4993009;28;20112;-87
2022/06/08 04:50:33;;;;;;;10.70;9.43;;;;;;;14.00;100.00;100653.41;4989624;28;20045;-88
2022/06/08 04:52:59;;;;;;;11.15;9.10;;;;;;;14.05;99.85;100649.47;4994418;28;20034;-88
2022/06/08 04:55:25;;;;;;;10.18;8.75;;;;;;;14.12;99.74;100650.72;4990896;28;20041;-88
2022/06/08 04:57:51;;;;;;;12.98;9.07;;;;;;;14.20;98.91;100639.50;4991684;28;20061;-89
2022/06/08 05:00:18;;;;;;;10.48;8.55;;;;;;;14.20;99.38;100639.50;4986081;28;20484;-89
2022/06/08 05:02:45;;;;;;;9.98;8.93;;;;;;;14.21;99.06;100638.53;4992334;28;20031;-88
2022/06/08 05:05:39;;;;;;;10.43;9.32;;;;;;;14.23;98.87;100628.59;4997584;28;20188;-88
2022/06/08 05:08:06;;;;;;;10.87;8.80;;;;;;;14.23;98.76;100641.97;4975233;28;20117;-87
2022/06/08 05:10:33;;;;;;;10.15;9.13;;;;;;;14.27;98.82;100632.78;4990095;28;20422;-88
2022/06/08 05:12:59;;;;;;;10.18;9.05;;;;;;;14.26;98.45;100631.06;4989405;28;20133;-88
2022/06/08 05:15:30;;;;;;;11.40;9.23;;;;;;;14.27;98.28;100622.06;4993063;28;20050;-88
2022/06/08 05:17:57;;;;;;;10.90;8.48;;;;;;;14.32;98.12;100617.25;4992173;28;20038;-87
2022/06/08 05:20:24;;;;;;;11.93;9.00;;;;;;;14.36;98.41;100618.75;4991147;28;20037;-88
2022/06/08 05:22:50;;;;;;;9.35;8.35;;;;;;;14.45;98.18;100618.09;4989194;28;20030;-87
2022/06/08 05:25:19;;;;;;;9.88;8.13;;;;;;;14.55;97.02;100604.94;4986598;28;20034;-87
2022/06/08 05:27:44;;;;;;;10.00;8.23;;;;;;;14.68;96.99;100615.66;4988436;28;20102;-87
2022/06/08 05:30:10;;;;;;;10.05;7.90;;;;;;;14.77;96.90;100617.66;4989629;28;20070;-87
2022/06/08 05:32:37;;;;;;;9.52;8.43;;;;;;;14.83;96.62;100616.34;4965026;28;20503;-89
2022/06/08 05:35:03;;;;;;;7.82;7.10;;;;;;;14.86;95.49;100608.09;4988236;28;20492;-88
2022/06/08 05:37:29;;;;;;;9.65;7.72;;;;;;;14.91;95.78;100600.56;4994315;28;20109;-88
2022/06/08 05:39:54;;;;;;;9.25;7.70;;;;;;;14.96;95.08;100598.41;4993374;28;20106;-87
2022/06/08 05:42:19;;;;;;;9.02;7.78;;;;;;;14.95;94.16;100592.19;4991891;28;20058;-88
2022/06/08 05:44:44;;;;;;;9.07;6.75;;;;;;;14.97;93.97;100592.09;4986974;28;20022;-87
2022/06/08 05:47:10;;;;;;;8.05;6.82;;;;;;;15.02;94.86;100583.72;4985320;28;20038;-86
2022/06/08 05:49:35;;;;;;;9.02;7.00;;;;;;;15.11;94.64;100577.69;4988870;28;20018;-87
2022/06/08 05:52:03;;;;;;;7.55;6.85;;;;;;;15.21;93.68;100581.38;4990829;28;20040;-87
2022/06/08 05:54:29;;;;;;;9.45;7.15;;;;;;;15.35;93.39;100583.03;4989847;28;20027;-85
2022/06/08 05:56:54;;;;;;;7.15;6.45;;;;;;;15.45;92.95;100573.31;4970141;28;20085;-88
2022/06/08 05:59:20;;;;;;;8.70;6.47;;;;;;;15.54;93.15;100567.25;4987781;28;20850;-89
2022/06/08 06:01:45;;;;;;;8.23;6.85;;;;;;;15.64;92.48;100565.63;4986235;28;20042;-90
2022/06/08 06:04:10;;;;;;;9.23;6.57;;;;;;;15.70;91.27;100566.97;4989221;28;20060;-89
2022/06/08 06:06:38;;;;;;;7.32;6.25;;;;;;;15.73;91.33;100557.84;4983614;28;20443;-87
2022/06/08 06:09:04;;;;;;;7.45;6.05;;;;;;;15.76;91.04;100558.47;4979284;28;20544;-89
2022/06/08 06:11:29;;;;;;;6.32;5.72;;;;;;;15.76;90.20;100550.44;4988146;28;20484;-88
2022/06/08 06:13:57;;;;;;;8.88;6.47;;;;;;;15.77;89.35;100556.66;4988758;28;20061;-88
2022/06/08 06:16:23;;;;;;;7.47;5.90;;;;;;;15.82;90.18;100549.94;4991431;28;20046;-88
2022/06/08 06:18:48;;;;;;;6.35;5.78;;;;;;;15.87;89.95;100547.75;4981962;28;20113;-86
2022/06/08 06:21:17;;;;;;;6.10;5.10;;;;;;;15.97;89.64;100557.75;4977724;28;20021;-89
2022/06/08 06:23:42;;;;;;;7.13;5.88;;;;;;;16.07;89.11;100567.66;4979565;28;20038;-87
2022/06/08 06:26:07;;;;;;;8.32;6.40;;;;;;;16.13;89.10;100563.63;4979118;28;20021;-87
2022/06/08 06:28:33;;;;;;;6.30;5.70;;;;;;;16.14;88.81;100563.53;4996077;28;20033;-87
2022/06/08 06:30:58;;;;;;;7.95;5.82;;;;;;;16.12;89.43;100552.06;4990953;28;20038;-86
2022/06/08 06:33:24;;;;;;;10.02;5.72;;;;;;;16.22;88.18;100564.75;4996064;28;20205;-87
2022/06/08 06:35:49;;;;;;;10.38;6.15;;;;;;;16.25;88.30;100572.56;5017044;28;20049;-87
2022/06/08 06:38:14;;;;;;;7.50;5.70;;;;;;;16.24;87.96;100569.03;4999021;28;20023;-87
2022/06/08 06:40:39;;;;;;;6.40;5.40;;;;;;;16.26;88.41;100574.28;4996736;28;20071;-87
2022/06/08 06:43:05;;;;;;;9.80;5.97;;;;;;;16.36;87.83;100567.22;4983077;28;20038;-86
2022/06/08 06:45:30;;;;;;;6.28;4.88;;;;;;;16.62;86.97;100568.66;4988673;28;20029;-87
2022/06/08 06:47:56;;;;;;;6.18;4.82;;;;;;;16.99;86.96;100573.78;4987166;28;20026;-86
2022/06/08 06:50:25;;;;;;;6.05;4.32;;;;;;;17.35;84.63;100566.34;4994588;28;20053;-87
2022/06/08 06:52:50;;;;;;;6.68;4.07;;;;;;;17.56;83.98;100563.69;5010874;28;20063;-87
2022/06/08 06:55:26;;;;;;;5.65;4.00;;;;;;;17.74;83.89;100559.44;4987432;28;20014;-86
2022/06/08 06:57:51;;;;;;;7.28;3.80;;;;;;;17.73;81.08;100560.41;4989939;28;20480;-86
2022/06/08 07:00:17;;;;;;;4.72;3.10;;;;;;;17.73;81.30;100559.56;4995043;28;20026;-86
2022/06/08 07:02:43;;;;;;;5.07;3.03;;;;;;;17.75;79.52;100560.28;4990196;28;20491;-86
2022/06/08 07:05:16;;;;;;;5.60;3.50;;;;;;;17.73;80.34;100562.25;4988904;28;20085;-86
2022/06/08 07:07:41;;;;;;;6.00;3.65;;;;;;;17.84;80.92;100549.59;4977298;28;20488;-85
2022/06/08 07:10:07;;;;;;;5.72;3.22;;;;;;;18.06;79.05;100542.38;4991511;28;20163;-85
2022/06/08 07:12:32;;;;;;;5.95;3.15;;;;;;;18.16;78.11;100535.19;4992205;28;20113;-86
2022/06/08 07:14:58;;;;;;;4.82;3.00;;;;;;;18.30;76.15;100548.28;4994661;28;20086;-86
2022/06/08 07:17:23;;;;;;;4.97;3.13;;;;;;;18.37;76.18;100559.38;4995064;28;20034;-86
2022/06/08 07:19:48;;;;;;;5.57;3.30;;;;;;;18.41;75.61;100548.19;4995069;28;20018;-84
2022/06/08 07:22:13;;;;;;;5.72;2.95;;;;;;;18.47;76.75;100540.56;4992618;28;20042;-86
2022/06/08 07:24:39;;;;;;;5.38;3.25;;;;;;;18.51;77.00;100539.28;4989221;28;20077;-86
2022/06/08 07:27:04;;;;;;;8.88;5.18;;;;;;;18.46;75.49;100536.16;4997359;28;20472;-86
2022/06/08 07:29:30;;;;;;;7.35;4.40;;;;;;;18.35;76.44;100537.97;4990480;28;20305;-87
2022/06/08 07:31:56;;;;;;;5.97;3.00;;;;;;;18.40;76.67;100533.03;4989391;28;20034;-93
2022/06/08 07:34:22;;;;;;;7.35;3.30;;;;;;;18.66;76.12;100524.44;4990830;28;20290;-89
2022/06/08 07:36:48;;;;;;;5.35;3.13;;;;;;;19.09;74.29;100531.38;4989882;28;20042;-89
2022/06/08 07:39:15;;;;;;;7.03;2.65;;;;;;;19.70;72.61;100524.88;4990330;28;20038;-89
2022/06/08 07:41:42;;;;;;;5.43;2.80;;;;;;;19.92;71.10;100529.91;4993134;28;20030;-90
2022/06/08 07:44:07;;;;;;;6.70;2.63;;;;;;;20.12;69.59;100520.75;4989711;28;20080;-90
2022/06/08 07:46:33;;;;;;;6.70;2.83;;;;;;;20.11;68.76;100534.44;4993864;28;20041;-91
2022/06/08 07:51:42;;;;;;;5.45;3.05;;;;;;;19.97;69.60;100534.88;4992420;28;20125;-91
2022/06/08 07:54:07;;;;;;;5.78;2.97;;;;;;;19.95;68.38;100531.50;4997030;28;20027;-93
2022/06/08 07:56:33;;;;;;;6.90;2.90;;;;;;;19.74;68.26;100537.94;4978391;28;20427;-93
2022/06/08 07:58:58;;;;;;;9.32;2.80;;;;;;;19.66;70.17;100529.69;4978341;28;20026;-93
2022/06/08 08:01:24;;;;;;;7.32;3.10;;;;;;;19.57;68.42;100525.97;4996203;28;20026;-93
2022/06/08 08:03:49;;;;;;;3.78;2.45;;;;;;;19.49;69.73;100525.84;4990383;28;20358;-90
2022/06/08 08:06:14;;;;;;;7.22;3.03;;;;;;;19.36;69.71;100536.94;4993431;28;20038;-89
2022/06/08 08:08:40;;;;;;;8.65;2.85;;;;;;;19.26;70.08;100538.75;4982789;28;20655;-91
2022/06/08 08:11:06;;;;;;;5.88;2.60;;;;;;;19.26;69.66;100537.91;4990581;28;20559;-93
2022/06/08 08:13:32;;;;;;;7.35;2.60;;;;;;;19.38;69.43;100529.53;4985467;28;21433;-89
2022/06/08 08:15:57;;;;;;;12.75;2.80;;;;;;;19.46;69.32;100526.13;4991117;28;20046;-89
2022/06/08 08:18:22;;;;;;;6.22;2.83;;;;;;;19.53;67.55;100526.41;4990635;28;20439;-91
2022/06/08 08:20:48;;;;;;;4.53;2.50;;;;;;;19.43;68.09;100523.69;4989470;28;20040;-93
2022/06/08 08:23:15;;;;;;;4.25;2.05;;;;;;;19.37;67.74;100526.97;4986707;28;20484;-92
2022/06/08 08:25:40;;;;;;;4.75;2.45;;;;;;;19.28;68.19;100534.09;4983472;28;20494;-90
2022/06/08 08:28:07;;;;;;;4.05;2.50;;;;;;;19.22;67.50;100523.00;4990825;28;20149;-94
2022/06/08 08:30:33;;;;;;;4.28;2.38;;;;;;;19.32;68.78;100532.81;4994770;28;20034;-93
2022/06/08 08:32:59;;;;;;;8.05;2.50;;;;;;;19.38;67.59;100532.22;5006814;28;20448;-93
2022/06/08 08:35:24;;;;;;;6.43;2.50;;;;;;;19.36;67.52;100528.84;4989540;28;20045;-92
2022/06/08 08:37:51;;;;;;;6.30;2.53;;;;;;;19.39;67.81;100531.22;4984029;28;20429;-92
2022/06/08 08:40:27;;;;;;;4.80;2.25;;;;;;;19.45;68.28;100529.81;4989170;28;20292;-90
2022/06/08 08:42:53;;;;;;;7.22;3.58;;;;;;;19.41;67.89;100529.25;4981025;28;20026;-91
2022/06/08 08:45:18;;;;;;;10.13;4.20;;;;;;;19.33;67.63;100522.88;4993575;28;20038;-93
2022/06/08 08:48:15;;;;;;;5.90;2.70;;;;;;;19.28;67.73;100530.53;4990911;28;20030;-90
2022/06/08 08:50:53;;;;;;;5.18;2.10;;;;;;;19.27;68.18;100524.28;4940387;28;20078;-89
2022/06/08 08:53:30;;;;;;;5.72;2.53;;;;;;;19.36;68.58;100520.75;4993356;28;20035;-91
2022/06/08 08:56:10;;;;;;;5.80;2.28;;;;;;;19.55;67.61;100522.56;4974612;28;20030;-90
2022/06/08 08:58:39;;;;;;;7.47;2.55;;;;;;;19.50;66.82;100524.00;4991870;28;20496;-89
2022/06/08 09:01:26;;;;;;;7.45;2.30;;;;;;;19.60;67.75;100531.06;4993030;28;20492;-90
2022/06/08 09:04:06;;;;;;;9.82;2.72;;;;;;;19.47;67.13;100524.28;4997569;28;20077;-90
2022/06/08 09:06:33;;;;;;;7.03;2.50;;;;;;;19.40;67.58;100532.09;4997749;28;20086;-87
2022/06/08 09:09:03;;;;;;;4.75;2.95;;;;;;;19.26;68.35;100527.97;4975354;28;20138;-91
2022/06/08 09:11:35;;;;;;;5.55;3.05;;;;;;;19.23;67.97;100527.38;4992811;28;20030;-88
2022/06/08 09:14:07;;;;;;;11.25;3.67;;;;;;;19.08;68.14;100529.66;4995239;28;20078;-89
2022/06/08 09:16:39;;;;;;;7.63;2.58;;;;;;;19.04;68.27;100525.53;4994276;28;20506;-87
2022/06/08 09:19:36;;;;;;;6.90;2.53;;;;;;;18.94;68.79;100536.34;5000500;28;20038;-91
2022/06/08 09:22:02;;;;;;;6.28;2.42;;;;;;;18.61;70.53;100535.66;4992737;28;20110;-90
2022/06/08 09:24:38;;;;;;;7.20;2.50;;;;;;;18.40;70.80;100537.56;4993903;28;20042;-88
2022/06/08 09:27:18;;;;;;;8.35;2.60;;;;;;;18.05;71.76;100541.50;4998256;28;20380;-87
2022/06/08 09:29:53;;;;;;;8.25;2.92;;;;;;;17.74;74.65;100537.03;4986395;28;20055;-91
2022/06/08 09:32:47;;;;;;;5.97;3.17;;;;;;;17.74;74.86;100539.72;4993809;28;20076;-90
2022/06/08 09:35:18;;;;;;;;;;;;;;;17.81;74.65;100538.25;4973837;28;20038;-89
2022/06/08 09:37:44;;;;;;;8.13;3.00;;;;;;;17.84;75.06;100546.88;4993747;28;19972;-88
2022/06/08 09:40:36;;;;;;;7.55;3.20;;;;;;;17.97;74.79;100537.75;4988836;28;20738;-91
2022/06/08 09:43:29;;;;;;;7.38;2.60;;;;;;;18.01;73.29;100549.97;4988881;28;20084;-89
2022/06/08 09:46:12;;;;;;;6.57;2.92;;;;;;;17.69;74.78;100540.13;4962880;28;20161;-89
2022/06/08 09:52:10;;;;;;;5.18;2.50;;;;;;;17.17;77.04;100539.97;4989349;28;20106;-92
2022/06/08 09:54:57;;;;;;;8.95;3.03;;;;;;;16.77;79.93;100542.41;4951094;28;20130;-89
2022/06/08 09:57:44;;;;;;;6.93;3.05;;;;;;;16.43;80.69;100544.28;4990566;28;20349;-90
2022/06/08 10:00:37;;;;;;;9.60;3.60;;;;;;;16.08;84.14;100544.38;4978136;28;20042;-89
2022/06/08 10:03:21;;;;;;;8.27;3.60;;;;;;;16.06;85.12;100549.00;4980828;28;20066;-91
2022/06/08 10:06:21;;;;;;;9.48;3.75;;;;;;;16.04;85.74;100542.91;5000715;28;20022;-92
2022/06/08 10:09:24;;;;;;;9.05;3.53;;;;;;;15.81;86.95;100540.19;4990144;28;20497;-88
2022/06/08 10:12:19;;;;;;;9.90;3.90;;;;;;;15.66;91.62;100544.91;4975302;28;20177;-89
2022/06/08 10:14:53;;;;;;;9.05;4.00;;;;;;;15.58;93.79;100549.09;4993651;28;20122;-91
2022/06/08 10:17:46;;;;;;;11.63;4.40;;;;;;;15.43;93.13;100548.47;4992032;28;20041;-91
2022/06/08 10:20:25;;;;;;;11.45;4.70;;;;;;;15.45;96.81;100544.66;4984057;28;20061;-91
2022/06/08 10:22:57;;;;;;;10.38;4.22;;;;;;;15.39;96.41;100544.31;4985243;28;20030;-91
2022/06/08 10:25:38;;;;;;;12.98;5.07;;;;;;;15.26;98.47;100547.06;4991097;28;20027;-90
2022/06/08 10:28:15;;;;;;;12.73;4.95;;;;;;;15.26;98.63;100555.09;4986405;28;20038;-91
2022/06/08 10:30:54;;;;;;;11.68;4.97;;;;;;;15.12;98.35;100549.91;4987455;28;20045;-90
2022/06/08 10:33:38;;;;;;;11.13;5.13;;;;;;;15.02;100.00;100549.72;4986079;28;20045;-90
2022/06/08 10:36:04;;;;;;;14.10;4.97;;;;;;;15.00;100.00;100548.97;4992052;28;20062;-91
2022/06/08 10:38:36;;;;;;;13.23;6.10;;;;;;;15.07;100.00;100547.56;4982779;28;20038;-90
2022/06/08 10:42:39;;;;;;;8.52;5.13;;;;;;;15.07;100.00;100552.91;4991296;28;20085;-91
2022/06/08 10:43:51;;;;;;;15.75;4.82;;;;;;;14.93;100.00;100545.06;4993737;28;20030;-91
2022/06/08 10:46:30;;;;;;;7.90;4.55;;;;;;;14.93;100.00;100548.59;4995363;28;20057;-89
2022/06/08 10:48:56;;;;;;;8.32;3.60;;;;;;;14.89;100.00;100539.06;4993198;28;20380;-91
2022/06/08 10:51:26;;;;;;;11.15;4.10;;;;;;;14.85;100.00;100542.09;4991155;28;20118;-91
2022/06/08 10:56:38;;;;;;;6.97;3.40;;;;;;;14.81;100.00;100544.13;4989010;28;20037;-91
2022/06/08 10:59:03;;;;;;;10.75;4.40;;;;;;;14.90;100.00;100535.41;4994512;28;20042;-89
2022/06/08 11:01:58;;;;;;;12.05;5.90;;;;;;;15.03;100.00;100535.34;5003814;28;20498;-90
2022/06/08 11:04:26;;;;;;;13.50;6.00;;;;;;;15.18;100.00;100541.41;4991059;28;20101;-91
2022/06/08 11:06:53;;;;;;;11.43;5.13;;;;;;;15.25;100.00;100534.59;4979552;28;20042;-92
2022/06/08 11:09:39;;;;;;;10.00;4.38;;;;;;;15.14;100.00;100532.75;4996815;28;20030;-91
2022/06/08 11:12:11;;;;;;;13.07;5.18;;;;;;;15.11;100.00;100532.97;4975400;28;20051;-92
2022/06/08 11:14:48;;;;;;;9.93;5.35;;;;;;;15.08;100.00;100518.94;4985700;28;20060;-92
2022/06/08 11:17:44;;;;;;;9.93;3.95;;;;;;;15.06;100.00;100523.56;4979637;28;20030;-90
2022/06/08 11:20:37;;;;;;;10.00;3.72;;;;;;;15.00;100.00;100510.59;5004923;28;20174;-91
2022/06/08 11:23:11;;;;;;;6.95;3.42;;;;;;;14.93;100.00;100512.91;5000823;28;20322;-92
2022/06/08 11:26:06;;;;;;;8.40;3.63;;;;;;;14.83;100.00;100514.53;4993065;28;20025;-92
2022/06/08 11:28:39;;;;;;;8.88;3.50;;;;;;;14.76;100.00;100508.78;4997549;28;20101;-91
2022/06/08 11:31:11;;;;;;;10.40;4.40;;;;;;;14.90;100.00;100513.97;4996496;28;20034;-93
2022/06/08 11:34:16;;;;;;;9.18;4.13;;;;;;;14.92;100.00;100504.00;4997451;28;20554;-92
2022/06/08 11:37:00;;;;;;;;;;;;;;;15.02;100.00;100503.31;4996655;28;20042;-92
2022/06/08 11:39:34;;;;;;;8.77;3.90;;;;;;;15.10;100.00;100500.91;4995345;28;19928;-93
2022/06/08 11:42:01;;;;;;;9.35;4.50;;;;;;;15.05;100.00;100495.91;4996975;28;20045;-94
2022/06/08 11:44:33;;;;;;;8.25;3.97;;;;;;;15.04;100.00;100494.19;4994034;28;20172;-94